Terminal Aerodrome Forecast
Issued by NWS

Home | Current Version | Previous Version | Graphics & Text | Print | Product List | Glossary On
Versions: 1 2 3 4 5 6 7 8 9 10 11 12 13 14 15 16 17 18 19 20 21 22
000
FTUS43 KICT 272331
TAFHUT
TAF
KHUT 272331Z 2800/2824 14012KT P6SM SCT035 BKN250
     FM280100 15010KT P6SM VCTS BKN035CB
      TEMPO 2802/2805 -TSRA
     FM281200 15010KT P6SM BKN050
     FM281500 18015G22KT P6SM BKN120=

USA.gov is the U.S. government's official web portal to all federal, state and local government web resources and services.